sensor_id;sensor_type;location;lat;lon;timestamp;P1;durP1;ratioP1;P2;durP2;ratioP2
15063;SDS011;7631;52.088;5.088;2024-03-25T00:01:53;3.40;;;1.50;;
15063;SDS011;7631;52.088;5.088;2024-03-25T00:04:18;1.97;;;1.10;;
15063;SDS011;7631;52.088;5.088;2024-03-25T00:06:45;4.37;;;1.20;;
15063;SDS011;7631;52.088;5.088;2024-03-25T00:09:11;3.30;;;1.10;;
15063;SDS011;7631;52.088;5.088;2024-03-25T00:11:39;3.63;;;1.27;;
15063;SDS011;7631;52.088;5.088;2024-03-25T00:14:04;2.53;;;1.10;;
15063;SDS011;7631;52.088;5.088;2024-03-25T00:16:29;2.20;;;0.93;;
15063;SDS011;7631;52.088;5.088;2024-03-25T00:18:54;2.53;;;1.00;;
15063;SDS011;7631;52.088;5.088;2024-03-25T00:21:20;2.20;;;1.03;;
15063;SDS011;7631;52.088;5.088;2024-03-25T00:23:45;4.37;;;1.03;;
15063;SDS011;7631;52.088;5.088;2024-03-25T00:26:10;3.23;;;1.13;;
15063;SDS011;7631;52.088;5.088;2024-03-25T00:28:35;2.60;;;1.00;;
15063;SDS011;7631;52.088;5.088;2024-03-25T00:31:00;2.80;;;1.10;;
15063;SDS011;7631;52.088;5.088;2024-03-25T00:33:26;3.63;;;1.50;;
15063;SDS011;7631;52.088;5.088;2024-03-25T00:35:51;2.60;;;1.30;;
15063;SDS011;7631;52.088;5.088;2024-03-25T00:38:16;3.43;;;1.30;;
15063;SDS011;7631;52.088;5.088;2024-03-25T00:40:41;3.07;;;1.10;;
15063;SDS011;7631;52.088;5.088;2024-03-25T00:43:07;3.67;;;1.30;;
15063;SDS011;7631;52.088;5.088;2024-03-25T00:45:32;1.83;;;1.03;;
15063;SDS011;7631;52.088;5.088;2024-03-25T00:47:57;3.00;;;1.17;;
15063;SDS011;7631;52.088;5.088;2024-03-25T00:50:24;4.43;;;1.77;;
15063;SDS011;7631;52.088;5.088;2024-03-25T00:52:49;2.27;;;1.23;;
15063;SDS011;7631;52.088;5.088;2024-03-25T00:55:15;2.03;;;0.90;;
15063;SDS011;7631;52.088;5.088;2024-03-25T00:57:40;3.73;;;1.40;;
15063;SDS011;7631;52.088;5.088;2024-03-25T01:00:05;3.43;;;1.10;;
15063;SDS011;7631;52.088;5.088;2024-03-25T01:02:31;2.83;;;1.17;;
15063;SDS011;7631;52.088;5.088;2024-03-25T01:04:56;2.23;;;1.03;;
15063;SDS011;7631;52.088;5.088;2024-03-25T01:07:22;4.37;;;1.33;;
15063;SDS011;7631;52.088;5.088;2024-03-25T01:09:47;3.67;;;1.20;;
15063;SDS011;7631;52.088;5.088;2024-03-25T01:12:12;3.77;;;1.27;;
15063;SDS011;7631;52.088;5.088;2024-03-25T01:14:37;2.10;;;1.20;;
15063;SDS011;7631;52.088;5.088;2024-03-25T01:17:02;4.43;;;1.30;;
15063;SDS011;7631;52.088;5.088;2024-03-25T01:19:28;3.27;;;1.27;;
15063;SDS011;7631;52.088;5.088;2024-03-25T01:21:53;3.20;;;1.10;;
15063;SDS011;7631;52.088;5.088;2024-03-25T01:24:18;3.60;;;1.60;;
15063;SDS011;7631;52.088;5.088;2024-03-25T01:26:44;3.67;;;1.07;;
15063;SDS011;7631;52.088;5.088;2024-03-25T01:29:10;3.33;;;1.27;;
15063;SDS011;7631;52.088;5.088;2024-03-25T01:31:35;3.00;;;1.30;;
15063;SDS011;7631;52.088;5.088;2024-03-25T01:34:00;4.43;;;1.50;;
15063;SDS011;7631;52.088;5.088;2024-03-25T01:36:25;4.03;;;1.40;;
15063;SDS011;7631;52.088;5.088;2024-03-25T01:38:52;4.27;;;1.30;;
15063;SDS011;7631;52.088;5.088;2024-03-25T01:41:19;2.73;;;1.30;;
15063;SDS011;7631;52.088;5.088;2024-03-25T01:43:45;2.40;;;1.33;;
15063;SDS011;7631;52.088;5.088;2024-03-25T01:46:10;1.70;;;1.33;;
15063;SDS011;7631;52.088;5.088;2024-03-25T01:48:35;4.13;;;1.30;;
15063;SDS011;7631;52.088;5.088;2024-03-25T01:51:01;3.60;;;1.23;;
15063;SDS011;7631;52.088;5.088;2024-03-25T01:53:27;4.07;;;1.00;;
15063;SDS011;7631;52.088;5.088;2024-03-25T01:55:53;3.67;;;1.27;;
15063;SDS011;7631;52.088;5.088;2024-03-25T01:58:21;2.03;;;1.10;;
15063;SDS011;7631;52.088;5.088;2024-03-25T02:00:46;3.80;;;1.00;;
15063;SDS011;7631;52.088;5.088;2024-03-25T02:03:12;3.87;;;1.30;;
15063;SDS011;7631;52.088;5.088;2024-03-25T02:05:37;3.33;;;1.53;;
15063;SDS011;7631;52.088;5.088;2024-03-25T02:08:03;2.80;;;1.07;;
15063;SDS011;7631;52.088;5.088;2024-03-25T02:10:28;3.50;;;1.50;;
15063;SDS011;7631;52.088;5.088;2024-03-25T02:12:54;3.63;;;0.90;;
15063;SDS011;7631;52.088;5.088;2024-03-25T02:15:20;2.07;;;1.00;;
15063;SDS011;7631;52.088;5.088;2024-03-25T02:17:46;2.50;;;1.30;;
15063;SDS011;7631;52.088;5.088;2024-03-25T02:20:11;4.60;;;1.17;;
15063;SDS011;7631;52.088;5.088;2024-03-25T02:22:37;2.47;;;0.90;;
15063;SDS011;7631;52.088;5.088;2024-03-25T02:25:07;2.47;;;1.20;;
15063;SDS011;7631;52.088;5.088;2024-03-25T02:27:38;3.00;;;1.30;;
15063;SDS011;7631;52.088;5.088;2024-03-25T02:30:07;2.97;;;1.13;;
15063;SDS011;7631;52.088;5.088;2024-03-25T02:32:33;2.93;;;1.00;;
15063;SDS011;7631;52.088;5.088;2024-03-25T02:34:59;3.70;;;1.30;;
15063;SDS011;7631;52.088;5.088;2024-03-25T02:37:24;2.83;;;1.40;;
15063;SDS011;7631;52.088;5.088;2024-03-25T02:39:50;2.90;;;1.10;;
15063;SDS011;7631;52.088;5.088;2024-03-25T02:42:16;3.37;;;1.33;;
15063;SDS011;7631;52.088;5.088;2024-03-25T02:44:41;3.37;;;1.47;;
15063;SDS011;7631;52.088;5.088;2024-03-25T02:47:08;4.83;;;1.73;;
15063;SDS011;7631;52.088;5.088;2024-03-25T02:49:33;3.67;;;1.30;;
15063;SDS011;7631;52.088;5.088;2024-03-25T02:51:59;3.23;;;1.20;;
15063;SDS011;7631;52.088;5.088;2024-03-25T02:54:25;5.20;;;1.53;;
15063;SDS011;7631;52.088;5.088;2024-03-25T02:56:50;5.47;;;1.60;;
15063;SDS011;7631;52.088;5.088;2024-03-25T02:59:15;2.97;;;1.03;;
15063;SDS011;7631;52.088;5.088;2024-03-25T03:01:40;3.50;;;1.33;;
15063;SDS011;7631;52.088;5.088;2024-03-25T03:04:05;2.57;;;1.20;;
15063;SDS011;7631;52.088;5.088;2024-03-25T03:06:30;2.50;;;1.13;;
15063;SDS011;7631;52.088;5.088;2024-03-25T03:08:56;2.70;;;1.30;;
15063;SDS011;7631;52.088;5.088;2024-03-25T03:11:21;3.53;;;1.33;;
15063;SDS011;7631;52.088;5.088;2024-03-25T03:13:46;2.73;;;1.07;;
15063;SDS011;7631;52.088;5.088;2024-03-25T03:16:11;3.27;;;1.10;;
15063;SDS011;7631;52.088;5.088;2024-03-25T03:18:37;2.53;;;1.20;;
15063;SDS011;7631;52.088;5.088;2024-03-25T03:21:02;2.63;;;0.90;;
15063;SDS011;7631;52.088;5.088;2024-03-25T03:23:27;2.83;;;1.20;;
15063;SDS011;7631;52.088;5.088;2024-03-25T03:25:53;3.90;;;1.13;;
15063;SDS011;7631;52.088;5.088;2024-03-25T03:28:18;2.90;;;1.50;;
15063;SDS011;7631;52.088;5.088;2024-03-25T03:30:43;2.63;;;0.97;;
15063;SDS011;7631;52.088;5.088;2024-03-25T03:33:08;2.57;;;1.17;;
15063;SDS011;7631;52.088;5.088;2024-03-25T03:35:34;3.33;;;1.23;;
15063;SDS011;7631;52.088;5.088;2024-03-25T03:37:59;3.27;;;1.00;;
15063;SDS011;7631;52.088;5.088;2024-03-25T03:40:24;2.20;;;1.17;;
15063;SDS011;7631;52.088;5.088;2024-03-25T03:42:49;2.83;;;1.07;;
15063;SDS011;7631;52.088;5.088;2024-03-25T03:45:14;3.27;;;1.23;;
15063;SDS011;7631;52.088;5.088;2024-03-25T03:47:39;3.20;;;1.27;;
15063;SDS011;7631;52.088;5.088;2024-03-25T03:50:06;3.80;;;1.30;;
15063;SDS011;7631;52.088;5.088;2024-03-25T03:52:31;2.17;;;1.20;;
15063;SDS011;7631;52.088;5.088;2024-03-25T03:54:56;5.37;;;1.73;;
15063;SDS011;7631;52.088;5.088;2024-03-25T03:57:21;3.40;;;1.03;;
15063;SDS011;7631;52.088;5.088;2024-03-25T03:59:46;2.70;;;1.00;;
15063;SDS011;7631;52.088;5.088;2024-03-25T04:02:12;3.50;;;1.27;;
15063;SDS011;7631;52.088;5.088;2024-03-25T04:04:37;3.03;;;1.30;;
15063;SDS011;7631;52.088;5.088;2024-03-25T04:07:02;1.77;;;0.73;;
15063;SDS011;7631;52.088;5.088;2024-03-25T04:09:27;3.53;;;1.13;;
15063;SDS011;7631;52.088;5.088;2024-03-25T04:11:54;1.57;;;0.80;;
15063;SDS011;7631;52.088;5.088;2024-03-25T04:14:19;2.47;;;1.17;;
15063;SDS011;7631;52.088;5.088;2024-03-25T04:16:44;2.67;;;1.07;;
15063;SDS011;7631;52.088;5.088;2024-03-25T04:19:09;2.37;;;1.10;;
15063;SDS011;7631;52.088;5.088;2024-03-25T04:21:34;2.83;;;1.10;;
15063;SDS011;7631;52.088;5.088;2024-03-25T04:24:00;2.80;;;1.00;;
15063;SDS011;7631;52.088;5.088;2024-03-25T04:26:25;2.47;;;1.03;;
15063;SDS011;7631;52.088;5.088;2024-03-25T04:28:50;2.53;;;0.97;;
15063;SDS011;7631;52.088;5.088;2024-03-25T04:31:15;2.10;;;1.03;;
15063;SDS011;7631;52.088;5.088;2024-03-25T04:33:41;4.07;;;1.00;;
15063;SDS011;7631;52.088;5.088;2024-03-25T04:36:06;3.27;;;1.20;;
15063;SDS011;7631;52.088;5.088;2024-03-25T04:38:32;3.23;;;1.00;;
15063;SDS011;7631;52.088;5.088;2024-03-25T04:40:57;2.60;;;1.20;;
15063;SDS011;7631;52.088;5.088;2024-03-25T04:43:22;1.97;;;1.00;;
15063;SDS011;7631;52.088;5.088;2024-03-25T04:45:48;2.13;;;0.90;;
15063;SDS011;7631;52.088;5.088;2024-03-25T04:48:14;2.07;;;1.00;;
15063;SDS011;7631;52.088;5.088;2024-03-25T04:50:39;2.37;;;1.00;;
15063;SDS011;7631;52.088;5.088;2024-03-25T04:53:04;1.90;;;0.90;;
15063;SDS011;7631;52.088;5.088;2024-03-25T04:55:29;3.20;;;1.30;;
15063;SDS011;7631;52.088;5.088;2024-03-25T04:57:54;3.53;;;1.30;;
15063;SDS011;7631;52.088;5.088;2024-03-25T05:00:20;3.07;;;1.13;;
15063;SDS011;7631;52.088;5.088;2024-03-25T05:02:45;2.47;;;1.17;;
15063;SDS011;7631;52.088;5.088;2024-03-25T05:05:10;3.80;;;1.20;;
15063;SDS011;7631;52.088;5.088;2024-03-25T05:07:35;3.63;;;1.53;;
15063;SDS011;7631;52.088;5.088;2024-03-25T05:10:01;2.23;;;1.07;;
15063;SDS011;7631;52.088;5.088;2024-03-25T05:12:26;2.03;;;1.27;;
15063;SDS011;7631;52.088;5.088;2024-03-25T05:14:58;2.27;;;0.97;;
15063;SDS011;7631;52.088;5.088;2024-03-25T05:17:23;2.17;;;1.20;;
15063;SDS011;7631;52.088;5.088;2024-03-25T05:19:48;2.30;;;1.20;;
15063;SDS011;7631;52.088;5.088;2024-03-25T05:22:14;2.57;;;1.37;;
15063;SDS011;7631;52.088;5.088;2024-03-25T05:24:39;2.10;;;1.10;;
15063;SDS011;7631;52.088;5.088;2024-03-25T05:27:04;2.90;;;1.30;;
15063;SDS011;7631;52.088;5.088;2024-03-25T05:29:30;2.07;;;1.10;;
15063;SDS011;7631;52.088;5.088;2024-03-25T05:31:58;2.53;;;1.23;;
15063;SDS011;7631;52.088;5.088;2024-03-25T05:34:24;3.13;;;1.30;;
15063;SDS011;7631;52.088;5.088;2024-03-25T05:36:50;4.77;;;1.50;;
15063;SDS011;7631;52.088;5.088;2024-03-25T05:39:15;3.30;;;1.37;;
15063;SDS011;7631;52.088;5.088;2024-03-25T05:41:40;3.83;;;1.30;;
15063;SDS011;7631;52.088;5.088;2024-03-25T05:44:05;2.93;;;1.20;;
15063;SDS011;7631;52.088;5.088;2024-03-25T05:46:30;2.63;;;1.40;;
15063;SDS011;7631;52.088;5.088;2024-03-25T05:48:56;3.50;;;1.30;;
15063;SDS011;7631;52.088;5.088;2024-03-25T05:51:21;1.93;;;1.33;;
15063;SDS011;7631;52.088;5.088;2024-03-25T05:53:46;2.70;;;1.40;;
15063;SDS011;7631;52.088;5.088;2024-03-25T05:56:11;2.10;;;1.20;;
15063;SDS011;7631;52.088;5.088;2024-03-25T05:58:36;1.73;;;1.33;;
15063;SDS011;7631;52.088;5.088;2024-03-25T06:01:01;3.37;;;1.50;;
15063;SDS011;7631;52.088;5.088;2024-03-25T06:03:29;3.40;;;1.43;;
15063;SDS011;7631;52.088;5.088;2024-03-25T06:05:54;2.77;;;1.40;;
15063;SDS011;7631;52.088;5.088;2024-03-25T06:08:19;2.50;;;1.30;;
15063;SDS011;7631;52.088;5.088;2024-03-25T06:10:51;2.60;;;1.33;;
15063;SDS011;7631;52.088;5.088;2024-03-25T06:13:16;5.83;;;2.00;;
15063;SDS011;7631;52.088;5.088;2024-03-25T06:15:41;3.67;;;1.17;;
15063;SDS011;7631;52.088;5.088;2024-03-25T06:18:06;2.13;;;1.30;;
15063;SDS011;7631;52.088;5.088;2024-03-25T06:20:31;1.83;;;1.13;;
15063;SDS011;7631;52.088;5.088;2024-03-25T06:22:57;2.57;;;1.37;;
15063;SDS011;7631;52.088;5.088;2024-03-25T06:25:22;2.73;;;1.47;;
15063;SDS011;7631;52.088;5.088;2024-03-25T06:27:47;4.73;;;1.90;;
15063;SDS011;7631;52.088;5.088;2024-03-25T06:30:12;2.57;;;1.27;;
15063;SDS011;7631;52.088;5.088;2024-03-25T06:32:56;3.07;;;1.37;;
15063;SDS011;7631;52.088;5.088;2024-03-25T06:35:43;2.00;;;1.57;;
15063;SDS011;7631;52.088;5.088;2024-03-25T06:38:09;2.33;;;1.33;;
15063;SDS011;7631;52.088;5.088;2024-03-25T06:40:35;2.87;;;1.50;;
15063;SDS011;7631;52.088;5.088;2024-03-25T06:43:00;3.43;;;1.67;;
15063;SDS011;7631;52.088;5.088;2024-03-25T06:45:25;2.47;;;1.30;;
15063;SDS011;7631;52.088;5.088;2024-03-25T06:47:50;3.20;;;1.30;;
15063;SDS011;7631;52.088;5.088;2024-03-25T06:50:15;1.80;;;1.40;;
15063;SDS011;7631;52.088;5.088;2024-03-25T06:52:40;3.97;;;1.43;;
15063;SDS011;7631;52.088;5.088;2024-03-25T06:55:06;1.87;;;1.27;;
15063;SDS011;7631;52.088;5.088;2024-03-25T06:57:31;2.77;;;1.47;;
15063;SDS011;7631;52.088;5.088;2024-03-25T06:59:56;2.53;;;1.60;;
15063;SDS011;7631;52.088;5.088;2024-03-25T07:02:22;2.70;;;1.40;;
15063;SDS011;7631;52.088;5.088;2024-03-25T07:04:48;2.83;;;1.50;;
15063;SDS011;7631;52.088;5.088;2024-03-25T07:07:13;2.07;;;1.40;;
15063;SDS011;7631;52.088;5.088;2024-03-25T07:09:38;2.23;;;1.50;;
15063;SDS011;7631;52.088;5.088;2024-03-25T07:12:03;3.73;;;1.77;;
15063;SDS011;7631;52.088;5.088;2024-03-25T07:14:28;2.17;;;1.30;;
15063;SDS011;7631;52.088;5.088;2024-03-25T07:16:54;2.30;;;1.17;;
15063;SDS011;7631;52.088;5.088;2024-03-25T07:19:19;2.90;;;1.43;;
15063;SDS011;7631;52.088;5.088;2024-03-25T07:21:44;2.57;;;1.10;;
15063;SDS011;7631;52.088;5.088;2024-03-25T07:24:09;2.40;;;1.30;;
15063;SDS011;7631;52.088;5.088;2024-03-25T07:26:34;1.60;;;0.90;;
15063;SDS011;7631;52.088;5.088;2024-03-25T07:28:59;2.30;;;1.20;;
15063;SDS011;7631;52.088;5.088;2024-03-25T07:31:25;2.70;;;1.47;;
15063;SDS011;7631;52.088;5.088;2024-03-25T07:33:50;2.63;;;1.43;;
15063;SDS011;7631;52.088;5.088;2024-03-25T07:36:15;1.80;;;0.90;;
15063;SDS011;7631;52.088;5.088;2024-03-25T07:38:41;2.97;;;1.33;;
15063;SDS011;7631;52.088;5.088;2024-03-25T07:41:06;2.80;;;1.37;;
15063;SDS011;7631;52.088;5.088;2024-03-25T07:43:31;3.13;;;1.60;;
15063;SDS011;7631;52.088;5.088;2024-03-25T07:45:56;2.60;;;1.30;;
15063;SDS011;7631;52.088;5.088;2024-03-25T07:48:22;2.93;;;1.70;;
15063;SDS011;7631;52.088;5.088;2024-03-25T07:50:47;2.77;;;1.47;;
15063;SDS011;7631;52.088;5.088;2024-03-25T07:53:12;4.30;;;1.47;;
15063;SDS011;7631;52.088;5.088;2024-03-25T07:55:37;2.27;;;1.63;;
15063;SDS011;7631;52.088;5.088;2024-03-25T07:58:02;5.30;;;1.90;;
15063;SDS011;7631;52.088;5.088;2024-03-25T08:00:30;3.97;;;1.57;;
15063;SDS011;7631;52.088;5.088;2024-03-25T08:02:56;6.47;;;2.07;;
15063;SDS011;7631;52.088;5.088;2024-03-25T08:05:21;2.77;;;1.60;;
15063;SDS011;7631;52.088;5.088;2024-03-25T08:07:47;3.83;;;1.47;;
15063;SDS011;7631;52.088;5.088;2024-03-25T08:10:13;2.10;;;1.40;;
15063;SDS011;7631;52.088;5.088;2024-03-25T08:12:38;2.27;;;1.40;;
15063;SDS011;7631;52.088;5.088;2024-03-25T08:15:03;3.63;;;1.60;;
15063;SDS011;7631;52.088;5.088;2024-03-25T08:17:29;4.67;;;1.70;;
15063;SDS011;7631;52.088;5.088;2024-03-25T08:19:54;2.40;;;1.43;;
15063;SDS011;7631;52.088;5.088;2024-03-25T08:22:19;4.13;;;1.60;;
15063;SDS011;7631;52.088;5.088;2024-03-25T08:24:45;1.53;;;1.20;;
15063;SDS011;7631;52.088;5.088;2024-03-25T08:27:10;3.80;;;1.47;;
15063;SDS011;7631;52.088;5.088;2024-03-25T08:29:35;2.23;;;1.50;;
15063;SDS011;7631;52.088;5.088;2024-03-25T08:32:00;6.13;;;1.60;;
15063;SDS011;7631;52.088;5.088;2024-03-25T08:34:25;2.93;;;1.60;;
15063;SDS011;7631;52.088;5.088;2024-03-25T08:36:51;4.67;;;1.80;;
15063;SDS011;7631;52.088;5.088;2024-03-25T08:39:16;4.33;;;1.67;;
15063;SDS011;7631;52.088;5.088;2024-03-25T08:41:41;3.47;;;1.73;;
15063;SDS011;7631;52.088;5.088;2024-03-25T08:44:06;4.53;;;2.00;;
15063;SDS011;7631;52.088;5.088;2024-03-25T08:46:31;3.25;;;1.60;;
15063;SDS011;7631;52.088;5.088;2024-03-25T08:48:57;4.43;;;1.73;;
15063;SDS011;7631;52.088;5.088;2024-03-25T08:51:22;4.90;;;1.60;;
15063;SDS011;7631;52.088;5.088;2024-03-25T08:53:48;3.30;;;1.70;;
15063;SDS011;7631;52.088;5.088;2024-03-25T08:56:13;3.67;;;1.93;;
15063;SDS011;7631;52.088;5.088;2024-03-25T08:58:38;3.87;;;1.67;;
15063;SDS011;7631;52.088;5.088;2024-03-25T09:01:03;3.17;;;1.50;;
15063;SDS011;7631;52.088;5.088;2024-03-25T09:03:28;4.47;;;1.70;;
15063;SDS011;7631;52.088;5.088;2024-03-25T09:05:55;6.57;;;1.80;;
15063;SDS011;7631;52.088;5.088;2024-03-25T09:08:21;2.73;;;1.70;;
15063;SDS011;7631;52.088;5.088;2024-03-25T09:10:47;4.10;;;1.93;;
15063;SDS011;7631;52.088;5.088;2024-03-25T09:13:28;5.03;;;1.83;;
15063;SDS011;7631;52.088;5.088;2024-03-25T09:15:53;5.20;;;1.97;;
15063;SDS011;7631;52.088;5.088;2024-03-25T09:18:18;4.13;;;2.00;;
15063;SDS011;7631;52.088;5.088;2024-03-25T09:20:44;3.43;;;1.60;;
15063;SDS011;7631;52.088;5.088;2024-03-25T09:23:09;4.57;;;1.63;;
15063;SDS011;7631;52.088;5.088;2024-03-25T09:25:34;3.63;;;1.57;;
15063;SDS011;7631;52.088;5.088;2024-03-25T09:27:59;4.13;;;2.03;;
15063;SDS011;7631;52.088;5.088;2024-03-25T09:30:26;4.10;;;1.80;;
15063;SDS011;7631;52.088;5.088;2024-03-25T09:32:51;3.07;;;1.80;;
15063;SDS011;7631;52.088;5.088;2024-03-25T09:35:16;5.17;;;1.70;;
15063;SDS011;7631;52.088;5.088;2024-03-25T09:37:41;2.80;;;1.60;;
15063;SDS011;7631;52.088;5.088;2024-03-25T09:40:07;4.60;;;2.00;;
15063;SDS011;7631;52.088;5.088;2024-03-25T09:42:38;3.83;;;1.70;;
15063;SDS011;7631;52.088;5.088;2024-03-25T09:45:06;2.90;;;1.87;;
15063;SDS011;7631;52.088;5.088;2024-03-25T09:47:32;3.20;;;1.60;;
15063;SDS011;7631;52.088;5.088;2024-03-25T09:49:58;4.13;;;1.63;;
15063;SDS011;7631;52.088;5.088;2024-03-25T09:52:24;4.07;;;1.57;;
15063;SDS011;7631;52.088;5.088;2024-03-25T09:54:49;2.63;;;1.77;;
15063;SDS011;7631;52.088;5.088;2024-03-25T09:57:14;5.27;;;1.83;;
15063;SDS011;7631;52.088;5.088;2024-03-25T09:59:40;4.53;;;1.70;;
15063;SDS011;7631;52.088;5.088;2024-03-25T10:02:05;3.13;;;1.70;;
15063;SDS011;7631;52.088;5.088;2024-03-25T10:04:32;3.67;;;1.80;;
15063;SDS011;7631;52.088;5.088;2024-03-25T10:06:58;4.00;;;1.90;;
15063;SDS011;7631;52.088;5.088;2024-03-25T10:09:23;4.50;;;2.00;;
15063;SDS011;7631;52.088;5.088;2024-03-25T10:11:48;3.87;;;2.00;;
15063;SDS011;7631;52.088;5.088;2024-03-25T10:14:14;5.67;;;1.90;;
15063;SDS011;7631;52.088;5.088;2024-03-25T10:16:40;3.33;;;1.70;;
15063;SDS011;7631;52.088;5.088;2024-03-25T10:19:06;4.20;;;2.17;;
15063;SDS011;7631;52.088;5.088;2024-03-25T10:21:32;4.07;;;2.30;;
15063;SDS011;7631;52.088;5.088;2024-03-25T10:23:57;4.37;;;2.37;;
15063;SDS011;7631;52.088;5.088;2024-03-25T10:26:25;4.33;;;2.23;;
15063;SDS011;7631;52.088;5.088;2024-03-25T10:29:06;5.03;;;2.60;;
15063;SDS011;7631;52.088;5.088;2024-03-25T10:31:32;3.10;;;2.60;;
15063;SDS011;7631;52.088;5.088;2024-03-25T10:33:59;4.67;;;2.50;;
15063;SDS011;7631;52.088;5.088;2024-03-25T10:36:24;3.97;;;2.70;;
15063;SDS011;7631;52.088;5.088;2024-03-25T10:38:53;5.13;;;3.10;;
15063;SDS011;7631;52.088;5.088;2024-03-25T10:41:19;6.07;;;3.23;;
15063;SDS011;7631;52.088;5.088;2024-03-25T10:43:45;4.47;;;2.80;;
15063;SDS011;7631;52.088;5.088;2024-03-25T10:46:11;3.93;;;2.80;;
15063;SDS011;7631;52.088;5.088;2024-03-25T10:48:37;4.40;;;2.80;;
15063;SDS011;7631;52.088;5.088;2024-03-25T10:51:04;3.83;;;2.63;;
15063;SDS011;7631;52.088;5.088;2024-03-25T10:53:31;4.97;;;2.93;;
15063;SDS011;7631;52.088;5.088;2024-03-25T10:55:57;5.93;;;2.67;;
15063;SDS011;7631;52.088;5.088;2024-03-25T10:58:22;4.50;;;3.10;;
15063;SDS011;7631;52.088;5.088;2024-03-25T11:00:48;6.20;;;3.00;;
15063;SDS011;7631;52.088;5.088;2024-03-25T11:03:13;3.90;;;2.63;;
15063;SDS011;7631;52.088;5.088;2024-03-25T11:05:39;4.70;;;2.80;;
15063;SDS011;7631;52.088;5.088;2024-03-25T11:10:39;3.50;;;3.03;;
15063;SDS011;7631;52.088;5.088;2024-03-25T11:13:09;4.23;;;3.03;;
15063;SDS011;7631;52.088;5.088;2024-03-25T11:15:40;5.30;;;3.10;;
15063;SDS011;7631;52.088;5.088;2024-03-25T11:18:10;4.17;;;2.97;;
15063;SDS011;7631;52.088;5.088;2024-03-25T11:20:35;3.70;;;2.70;;
15063;SDS011;7631;52.088;5.088;2024-03-25T11:23:07;3.83;;;2.80;;
15063;SDS011;7631;52.088;5.088;2024-03-25T11:25:32;3.50;;;3.00;;
15063;SDS011;7631;52.088;5.088;2024-03-25T11:27:58;4.90;;;2.80;;
15063;SDS011;7631;52.088;5.088;2024-03-25T11:30:23;3.87;;;2.60;;
15063;SDS011;7631;52.088;5.088;2024-03-25T11:32:51;7.23;;;3.40;;
15063;SDS011;7631;52.088;5.088;2024-03-25T11:35:17;4.50;;;2.90;;
15063;SDS011;7631;52.088;5.088;2024-03-25T11:37:42;5.23;;;2.93;;
15063;SDS011;7631;52.088;5.088;2024-03-25T11:40:09;3.60;;;3.20;;
15063;SDS011;7631;52.088;5.088;2024-03-25T11:42:37;4.40;;;3.00;;
15063;SDS011;7631;52.088;5.088;2024-03-25T11:45:03;3.67;;;3.03;;
15063;SDS011;7631;52.088;5.088;2024-03-25T11:47:29;4.37;;;2.90;;
15063;SDS011;7631;52.088;5.088;2024-03-25T11:49:54;5.07;;;2.73;;
15063;SDS011;7631;52.088;5.088;2024-03-25T11:52:19;4.13;;;3.00;;
15063;SDS011;7631;52.088;5.088;2024-03-25T11:54:45;3.63;;;3.07;;
15063;SDS011;7631;52.088;5.088;2024-03-25T11:57:10;4.40;;;3.33;;
15063;SDS011;7631;52.088;5.088;2024-03-25T11:59:35;3.97;;;2.70;;
15063;SDS011;7631;52.088;5.088;2024-03-25T12:02:00;4.23;;;2.77;;
15063;SDS011;7631;52.088;5.088;2024-03-25T12:04:26;3.53;;;3.03;;
15063;SDS011;7631;52.088;5.088;2024-03-25T12:06:54;5.33;;;2.90;;
15063;SDS011;7631;52.088;5.088;2024-03-25T12:09:19;3.93;;;2.80;;
15063;SDS011;7631;52.088;5.088;2024-03-25T12:12:03;4.50;;;3.30;;
15063;SDS011;7631;52.088;5.088;2024-03-25T12:14:29;3.83;;;2.70;;
15063;SDS011;7631;52.088;5.088;2024-03-25T12:16:55;4.43;;;2.90;;
15063;SDS011;7631;52.088;5.088;2024-03-25T12:19:20;4.33;;;3.20;;
15063;SDS011;7631;52.088;5.088;2024-03-25T12:21:45;5.00;;;2.93;;
15063;SDS011;7631;52.088;5.088;2024-03-25T12:24:12;3.47;;;3.00;;
15063;SDS011;7631;52.088;5.088;2024-03-25T12:26:37;4.13;;;2.93;;
15063;SDS011;7631;52.088;5.088;2024-03-25T12:29:02;3.43;;;2.90;;
15063;SDS011;7631;52.088;5.088;2024-03-25T12:31:29;4.23;;;2.40;;
15063;SDS011;7631;52.088;5.088;2024-03-25T12:33:54;3.90;;;3.00;;
15063;SDS011;7631;52.088;5.088;2024-03-25T12:36:20;2.80;;;2.50;;
15063;SDS011;7631;52.088;5.088;2024-03-25T12:38:53;4.47;;;2.53;;
15063;SDS011;7631;52.088;5.088;2024-03-25T12:41:21;3.17;;;2.63;;
15063;SDS011;7631;52.088;5.088;2024-03-25T12:43:46;5.33;;;2.70;;
15063;SDS011;7631;52.088;5.088;2024-03-25T12:46:11;2.70;;;2.50;;
15063;SDS011;7631;52.088;5.088;2024-03-25T12:48:37;4.33;;;2.60;;
15063;SDS011;7631;52.088;5.088;2024-03-25T12:51:02;3.57;;;2.77;;
15063;SDS011;7631;52.088;5.088;2024-03-25T12:53:28;3.27;;;2.40;;
15063;SDS011;7631;52.088;5.088;2024-03-25T12:55:53;2.97;;;2.40;;
15063;SDS011;7631;52.088;5.088;2024-03-25T12:58:18;3.00;;;2.53;;
15063;SDS011;7631;52.088;5.088;2024-03-25T13:00:43;2.60;;;2.27;;
15063;SDS011;7631;52.088;5.088;2024-03-25T13:03:09;2.93;;;2.40;;
15063;SDS011;7631;52.088;5.088;2024-03-25T13:05:34;3.67;;;2.67;;
15063;SDS011;7631;52.088;5.088;2024-03-25T13:07:59;3.27;;;2.87;;
15063;SDS011;7631;52.088;5.088;2024-03-25T13:10:25;3.10;;;2.80;;
15063;SDS011;7631;52.088;5.088;2024-03-25T13:12:50;3.33;;;2.77;;
15063;SDS011;7631;52.088;5.088;2024-03-25T13:15:15;3.87;;;2.80;;
15063;SDS011;7631;52.088;5.088;2024-03-25T13:17:40;3.70;;;2.70;;
15063;SDS011;7631;52.088;5.088;2024-03-25T13:20:06;5.20;;;2.80;;
15063;SDS011;7631;52.088;5.088;2024-03-25T13:22:31;4.80;;;2.80;;
15063;SDS011;7631;52.088;5.088;2024-03-25T13:24:57;2.80;;;2.57;;
15063;SDS011;7631;52.088;5.088;2024-03-25T13:27:22;3.57;;;2.73;;
15063;SDS011;7631;52.088;5.088;2024-03-25T13:29:48;4.27;;;2.67;;
15063;SDS011;7631;52.088;5.088;2024-03-25T13:32:13;3.07;;;2.47;;
15063;SDS011;7631;52.088;5.088;2024-03-25T13:34:38;3.23;;;2.40;;
15063;SDS011;7631;52.088;5.088;2024-03-25T13:37:03;4.93;;;3.00;;
15063;SDS011;7631;52.088;5.088;2024-03-25T13:39:29;2.90;;;2.57;;
15063;SDS011;7631;52.088;5.088;2024-03-25T13:41:54;3.47;;;2.60;;
15063;SDS011;7631;52.088;5.088;2024-03-25T13:44:19;3.20;;;2.57;;
15063;SDS011;7631;52.088;5.088;2024-03-25T13:46:44;2.90;;;2.23;;
15063;SDS011;7631;52.088;5.088;2024-03-25T13:49:09;3.80;;;2.67;;
15063;SDS011;7631;52.088;5.088;2024-03-25T13:51:36;3.90;;;2.57;;
15063;SDS011;7631;52.088;5.088;2024-03-25T13:54:01;3.23;;;2.70;;
15063;SDS011;7631;52.088;5.088;2024-03-25T13:56:27;3.37;;;2.60;;
15063;SDS011;7631;52.088;5.088;2024-03-25T13:58:52;3.70;;;2.50;;
15063;SDS011;7631;52.088;5.088;2024-03-25T14:01:18;3.03;;;2.63;;
15063;SDS011;7631;52.088;5.088;2024-03-25T14:03:43;4.10;;;2.73;;
15063;SDS011;7631;52.088;5.088;2024-03-25T14:06:08;3.80;;;2.83;;
15063;SDS011;7631;52.088;5.088;2024-03-25T14:08:33;3.70;;;2.27;;
15063;SDS011;7631;52.088;5.088;2024-03-25T14:10:59;3.27;;;2.40;;
15063;SDS011;7631;52.088;5.088;2024-03-25T14:13:25;3.63;;;2.63;;
15063;SDS011;7631;52.088;5.088;2024-03-25T14:15:50;3.33;;;2.23;;
15063;SDS011;7631;52.088;5.088;2024-03-25T14:18:15;4.17;;;2.67;;
15063;SDS011;7631;52.088;5.088;2024-03-25T14:20:41;3.77;;;2.40;;
15063;SDS011;7631;52.088;5.088;2024-03-25T14:23:06;3.00;;;2.27;;
15063;SDS011;7631;52.088;5.088;2024-03-25T14:25:31;3.57;;;2.57;;
15063;SDS011;7631;52.088;5.088;2024-03-25T14:27:57;3.07;;;2.33;;
15063;SDS011;7631;52.088;5.088;2024-03-25T14:30:22;4.20;;;2.67;;
15063;SDS011;7631;52.088;5.088;2024-03-25T14:32:47;3.57;;;2.57;;
15063;SDS011;7631;52.088;5.088;2024-03-25T14:35:13;2.87;;;2.30;;
15063;SDS011;7631;52.088;5.088;2024-03-25T14:37:39;3.00;;;2.43;;
15063;SDS011;7631;52.088;5.088;2024-03-25T14:40:04;2.77;;;2.57;;
15063;SDS011;7631;52.088;5.088;2024-03-25T14:42:30;3.17;;;2.37;;
15063;SDS011;7631;52.088;5.088;2024-03-25T14:44:56;2.93;;;2.27;;
15063;SDS011;7631;52.088;5.088;2024-03-25T14:47:21;3.07;;;2.40;;
15063;SDS011;7631;52.088;5.088;2024-03-25T14:49:47;3.87;;;2.70;;
15063;SDS011;7631;52.088;5.088;2024-03-25T14:52:12;3.80;;;2.50;;
15063;SDS011;7631;52.088;5.088;2024-03-25T14:54:37;3.10;;;2.40;;